createdAt,value
2023-09-14T00:01:40.286Z,69.84
2023-09-14T00:04:42.311Z,69.81
2023-09-14T00:07:44.270Z,70.01
2023-09-14T00:10:46.147Z,69.83
2023-09-14T00:13:48.030Z,70.21
2023-09-14T00:16:50.008Z,70.12
2023-09-14T00:19:51.911Z,70.31
2023-09-14T00:22:56.347Z,69.93
2023-09-14T00:25:58.316Z,69.87
2023-09-14T00:29:00.346Z,69.88
2023-09-14T00:32:02.290Z,69.74
2023-09-14T00:35:04.369Z,69.77
2023-09-14T00:38:06.568Z,69.49
2023-09-14T00:41:08.761Z,69.47
2023-09-14T00:44:10.628Z,69.44
2023-09-14T00:47:12.595Z,69.12
2023-09-14T00:50:18.901Z,69.46
2023-09-14T00:53:21.616Z,68.99
2023-09-14T00:56:24.519Z,69.21
2023-09-14T00:59:27.521Z,69.25
2023-09-14T01:02:29.451Z,69.28
2023-09-14T01:05:32.724Z,69.40
2023-09-14T01:08:35.588Z,69.77
2023-09-14T01:11:37.621Z,69.47
2023-09-14T01:14:50.212Z,69.62
2023-09-14T01:18:20.891Z,69.68
2023-09-14T01:21:31.997Z,69.41
2023-09-14T01:24:42.064Z,69.62
2023-09-14T01:27:45.454Z,69.67
2023-09-14T01:30:47.396Z,69.93
2023-09-14T01:33:50.204Z,70.16
2023-09-14T01:37:01.018Z,70.21
2023-09-14T01:40:10.254Z,69.95
2023-09-14T01:43:13.814Z,70.06
2023-09-14T01:46:16.212Z,70.33
2023-09-14T01:49:18.353Z,70.37
2023-09-14T01:52:20.427Z,70.43
2023-09-14T01:55:22.312Z,70.16
2023-09-14T01:58:24.370Z,70.24
2023-09-14T02:01:27.049Z,70.13
2023-09-14T02:04:29.096Z,70.17
2023-09-14T02:07:30.983Z,70.04
2023-09-14T02:10:32.849Z,69.94
2023-09-14T02:13:36.104Z,69.90
2023-09-14T02:16:37.966Z,69.99
2023-09-14T02:19:39.856Z,70.26
2023-09-14T02:22:41.755Z,69.53
2023-09-14T02:25:44.585Z,69.94
2023-09-14T02:28:46.561Z,69.85
2023-09-14T02:31:48.968Z,69.92
2023-09-14T02:34:51.035Z,69.88
2023-09-14T02:37:53.048Z,69.83
2023-09-14T02:40:54.922Z,70.46
2023-09-14T02:43:57.518Z,70.26
2023-09-14T02:46:59.913Z,70.24
2023-09-14T02:50:02.036Z,69.88
2023-09-14T02:53:04.133Z,69.69
2023-09-14T02:56:10.877Z,70.00
2023-09-14T02:59:16.567Z,70.15
2023-09-14T03:02:18.589Z,70.01
2023-09-14T03:05:20.802Z,69.78
2023-09-14T03:08:22.787Z,69.64
2023-09-14T03:11:25.121Z,69.76
2023-09-14T03:14:27.387Z,69.69
2023-09-14T03:17:29.393Z,69.56
2023-09-14T03:20:31.404Z,69.48
2023-09-14T03:23:33.404Z,69.64
2023-09-14T03:26:35.428Z,69.47
2023-09-14T03:29:37.373Z,69.85
2023-09-14T03:32:39.497Z,70.02
2023-09-14T03:35:44.545Z,70.46
2023-09-14T03:38:47.036Z,70.32
2023-09-14T03:41:50.444Z,70.18
2023-09-14T03:44:52.416Z,70.26
2023-09-14T03:47:56.778Z,70.34
2023-09-14T03:51:00.873Z,70.50
2023-09-14T03:54:02.771Z,70.29
2023-09-14T03:57:05.331Z,69.95
2023-09-14T04:00:12.321Z,70.11
2023-09-14T04:03:21.484Z,70.00
2023-09-14T04:06:23.579Z,69.85
2023-09-14T04:09:26.968Z,69.49
2023-09-14T04:12:28.855Z,69.89
2023-09-14T04:15:32.732Z,70.18
2023-09-14T04:18:36.742Z,70.26
2023-09-14T04:21:38.997Z,70.16
2023-09-14T04:24:41.143Z,70.00
2023-09-14T04:27:42.981Z,69.81
2023-09-14T04:30:48.483Z,70.14
2023-09-14T04:33:50.820Z,70.24
2023-09-14T04:36:52.819Z,69.96
2023-09-14T04:39:54.819Z,70.28
2023-09-14T04:42:56.756Z,70.33
2023-09-14T04:45:58.721Z,70.08
2023-09-14T04:49:01.592Z,69.87
2023-09-14T04:52:04.619Z,70.04
2023-09-14T04:55:07.131Z,69.68
2023-09-14T04:58:09.093Z,69.61
2023-09-14T05:01:11.167Z,69.32
2023-09-14T05:04:16.320Z,69.21
2023-09-14T05:07:18.393Z,68.98
2023-09-14T05:10:20.412Z,68.70
2023-09-14T05:13:22.519Z,68.68
2023-09-14T05:16:24.582Z,68.18
2023-09-14T05:19:26.782Z,68.37
2023-09-14T05:22:29.496Z,68.15
2023-09-14T05:25:31.909Z,68.04
2023-09-14T05:28:33.813Z,68.01
2023-09-14T05:31:36.197Z,68.22
2023-09-14T05:34:38.605Z,67.63
2023-09-14T05:37:40.556Z,67.55
2023-09-14T05:40:42.552Z,67.36
2023-09-14T05:43:44.433Z,67.61
2023-09-14T05:46:46.591Z,67.75
2023-09-14T05:49:48.917Z,67.88
2023-09-14T05:52:51.650Z,67.92
2023-09-14T05:55:56.150Z,68.23
2023-09-14T05:58:58.427Z,68.36
2023-09-14T06:02:01.916Z,68.64
2023-09-14T06:05:21.072Z,68.67
2023-09-14T06:08:25.914Z,69.00
2023-09-14T06:11:28.923Z,69.18
2023-09-14T06:14:31.020Z,69.09
2023-09-14T06:17:32.887Z,68.48
2023-09-14T06:20:35.075Z,68.21
2023-09-14T06:23:36.949Z,67.96
2023-09-14T06:26:39.580Z,67.66
2023-09-14T06:29:41.427Z,67.41
2023-09-14T06:32:46.437Z,66.81
2023-09-14T06:35:48.416Z,66.59
2023-09-14T06:38:50.251Z,66.63
2023-09-14T06:41:52.167Z,66.08
2023-09-14T06:44:54.127Z,65.47
2023-09-14T06:47:55.972Z,65.23
2023-09-14T06:50:58.036Z,64.96
2023-09-14T06:53:59.864Z,65.41
2023-09-14T06:57:01.788Z,65.29
2023-09-14T07:00:09.470Z,65.03
2023-09-14T07:03:11.485Z,64.94
2023-09-14T07:06:13.486Z,64.45
2023-09-14T07:09:15.417Z,64.14
2023-09-14T07:12:18.477Z,63.72
2023-09-14T07:15:20.298Z,64.06
2023-09-14T07:18:30.945Z,63.72
2023-09-14T07:21:38.802Z,63.92
2023-09-14T07:24:40.787Z,63.91
2023-09-14T07:27:42.874Z,63.62
2023-09-14T07:30:44.771Z,63.46
2023-09-14T07:33:47.248Z,63.59
2023-09-14T07:36:49.365Z,63.61
2023-09-14T07:39:51.333Z,64.10
2023-09-14T07:42:53.225Z,63.85
2023-09-14T07:45:56.969Z,63.83
2023-09-14T07:48:59.053Z,63.70
2023-09-14T07:52:01.042Z,62.91
2023-09-14T07:55:05.560Z,62.15
2023-09-14T07:58:07.920Z,61.31
2023-09-14T08:01:10.098Z,60.33
2023-09-14T08:04:12.377Z,58.74
2023-09-14T08:07:16.117Z,57.26
2023-09-14T08:10:18.114Z,56.51
2023-09-14T08:13:21.014Z,54.91
2023-09-14T08:16:24.704Z,54.59
2023-09-14T08:19:26.704Z,54.42
2023-09-14T08:22:28.818Z,54.71
2023-09-14T08:25:30.717Z,54.66
2023-09-14T08:28:32.698Z,55.00
2023-09-14T08:31:34.661Z,55.86
2023-09-14T08:34:36.600Z,56.61
2023-09-14T08:37:38.533Z,57.00
2023-09-14T08:40:42.681Z,57.77
2023-09-14T08:43:46.718Z,58.29
2023-09-14T08:46:50.006Z,59.28
2023-09-14T08:49:54.347Z,60.51
2023-09-14T08:52:56.559Z,61.68
2023-09-14T08:55:58.549Z,61.06
2023-09-14T08:59:03.305Z,62.29
2023-09-14T09:02:08.868Z,63.69
2023-09-14T09:05:12.797Z,64.46
2023-09-14T09:08:16.960Z,64.76
2023-09-14T09:11:18.982Z,65.58
2023-09-14T09:14:20.840Z,65.82
2023-09-14T09:17:22.819Z,65.44
2023-09-14T09:20:24.901Z,64.33
2023-09-14T09:23:27.103Z,64.39
2023-09-14T09:26:41.574Z,64.20
2023-09-14T09:29:45.314Z,65.13
2023-09-14T09:32:56.398Z,66.39
2023-09-14T09:35:59.777Z,67.02
2023-09-14T09:39:06.114Z,67.75
2023-09-14T09:42:09.655Z,68.75
2023-09-14T09:45:12.499Z,69.85
2023-09-14T09:48:15.317Z,70.23
2023-09-14T09:51:23.304Z,70.74
2023-09-14T09:54:26.139Z,70.99
2023-09-14T09:57:32.833Z,71.69
2023-09-14T10:00:38.044Z,71.90
2023-09-14T10:03:40.290Z,71.92
2023-09-14T10:06:45.177Z,71.79
2023-09-14T10:09:47.603Z,72.36
2023-09-14T10:12:49.775Z,72.63
2023-09-14T10:15:56.733Z,72.88
2023-09-14T10:18:59.523Z,73.02
2023-09-14T10:22:01.835Z,73.16
2023-09-14T10:25:06.038Z,73.50
2023-09-14T10:28:08.885Z,73.95
2023-09-14T10:31:12.529Z,73.58
2023-09-14T10:34:15.902Z,74.09
2023-09-14T10:37:20.585Z,74.08
2023-09-14T10:40:22.936Z,73.67
2023-09-14T10:43:25.156Z,73.97
2023-09-14T10:46:35.165Z,74.62
2023-09-14T10:49:38.044Z,74.79
2023-09-14T10:52:41.715Z,74.72
2023-09-14T10:55:43.771Z,74.91
2023-09-14T10:58:46.252Z,74.97
2023-09-14T11:05:17.097Z,75.71
2023-09-14T11:08:21.202Z,75.02
2023-09-14T11:11:39.718Z,76.41
2023-09-14T11:15:16.859Z,78.36
2023-09-14T11:18:19.263Z,78.28
2023-09-14T11:21:34.714Z,78.22
2023-09-14T11:24:39.648Z,77.65
2023-09-14T11:27:43.844Z,77.78
2023-09-14T11:30:50.156Z,78.16
2023-09-14T11:33:55.848Z,78.05
2023-09-14T11:37:06.933Z,78.47
2023-09-14T11:40:20.699Z,79.14
2023-09-14T11:43:44.411Z,78.92
2023-09-14T11:46:52.657Z,79.53
2023-09-14T11:49:58.913Z,79.73
2023-09-14T11:53:01.782Z,80.05
2023-09-14T11:56:04.440Z,79.94
2023-09-14T11:59:06.320Z,79.36
2023-09-14T12:02:09.764Z,79.20
2023-09-14T12:05:11.649Z,78.78
2023-09-14T12:08:15.557Z,78.85
2023-09-14T12:11:17.729Z,78.69
2023-09-14T12:14:19.569Z,78.15
2023-09-14T12:17:26.490Z,78.67
2023-09-14T12:20:29.563Z,79.07
2023-09-14T12:23:33.686Z,79.69
2023-09-14T12:26:35.958Z,79.61
2023-09-14T12:29:38.107Z,79.21
2023-09-14T12:32:40.757Z,79.18
2023-09-14T12:35:43.662Z,79.49
2023-09-14T12:38:48.398Z,79.53
2023-09-14T12:41:53.673Z,79.97
2023-09-14T12:44:55.748Z,80.06
2023-09-14T12:47:57.876Z,80.50
2023-09-14T12:51:04.343Z,80.16
2023-09-14T12:54:06.482Z,79.99
2023-09-14T12:57:16.057Z,79.93
2023-09-14T13:00:21.271Z,79.85
2023-09-14T13:03:23.589Z,79.53
2023-09-14T13:06:26.008Z,79.46
2023-09-14T13:09:27.998Z,79.30
2023-09-14T13:12:30.100Z,78.97
2023-09-14T13:15:33.057Z,79.11
2023-09-14T13:18:34.983Z,78.58
2023-09-14T13:21:37.095Z,79.22
2023-09-14T13:24:39.144Z,78.92
2023-09-14T13:27:43.978Z,79.15
2023-09-14T13:30:47.116Z,79.20
2023-09-14T13:33:49.070Z,79.22
2023-09-14T13:36:54.061Z,78.17
2023-09-14T13:39:57.092Z,77.73
2023-09-14T13:43:00.578Z,77.49
2023-09-14T13:46:03.397Z,77.70
2023-09-14T13:49:05.948Z,78.09
2023-09-14T13:52:07.811Z,77.64
2023-09-14T13:55:11.245Z,77.18
2023-09-14T13:58:13.364Z,76.46
2023-09-14T14:01:15.420Z,76.16
2023-09-14T14:04:17.326Z,75.64
2023-09-14T14:07:19.748Z,75.74
2023-09-14T14:10:21.536Z,75.57
2023-09-14T14:13:23.434Z,75.42
2023-09-14T14:16:25.312Z,74.94
2023-09-14T14:19:27.347Z,74.99
2023-09-14T14:22:29.861Z,73.83
2023-09-14T14:25:31.860Z,72.81
2023-09-14T14:28:33.688Z,71.90
2023-09-14T14:31:35.951Z,71.34
2023-09-14T14:34:38.376Z,70.71
2023-09-14T14:37:40.337Z,70.50
2023-09-14T14:41:16.978Z,70.26
2023-09-14T14:44:04.288Z,69.97
2023-09-14T14:47:06.391Z,70.18
2023-09-14T14:50:08.736Z,70.17
2023-09-14T14:53:11.681Z,70.12
2023-09-14T14:56:13.540Z,69.84
2023-09-14T14:59:15.340Z,70.02
2023-09-14T15:02:17.197Z,69.88
2023-09-14T15:05:19.291Z,69.90
2023-09-14T15:08:21.371Z,70.09
2023-09-14T15:11:23.542Z,70.28
2023-09-14T15:14:25.490Z,69.83
2023-09-14T15:17:27.867Z,69.69
2023-09-14T15:20:29.933Z,70.25
2023-09-14T15:23:31.878Z,69.84
2023-09-14T15:26:33.787Z,69.65
2023-09-14T15:29:36.454Z,69.83
2023-09-14T15:32:43.012Z,70.08
2023-09-14T15:35:44.877Z,69.58
2023-09-14T15:38:46.997Z,69.74
2023-09-14T15:41:51.620Z,69.70
2023-09-14T15:44:53.513Z,69.90
2023-09-14T15:47:56.694Z,69.60
2023-09-14T15:50:59.008Z,69.58
2023-09-14T15:54:00.895Z,69.67
2023-09-14T15:57:03.196Z,70.10
2023-09-14T16:00:05.617Z,69.85
2023-09-14T16:03:13.075Z,69.70
2023-09-14T16:06:17.434Z,69.54
2023-09-14T16:09:19.412Z,69.99
2023-09-14T16:12:21.325Z,70.32
2023-09-14T16:15:23.253Z,70.06
2023-09-14T16:18:25.218Z,69.94
2023-09-14T16:21:27.195Z,69.90
2023-09-14T16:24:29.135Z,70.21
2023-09-14T16:27:31.110Z,70.21
2023-09-14T16:30:34.564Z,70.13
2023-09-14T16:33:36.438Z,70.15
2023-09-14T16:36:39.624Z,70.19
2023-09-14T16:39:41.613Z,70.29
2023-09-14T16:42:43.793Z,70.97
2023-09-14T16:45:46.758Z,70.94
2023-09-14T16:48:50.412Z,70.98
2023-09-14T16:51:53.665Z,71.08
2023-09-14T16:54:58.699Z,71.21
2023-09-14T16:58:00.900Z,71.26
2023-09-14T17:01:02.919Z,71.27
2023-09-14T17:04:08.329Z,71.71
2023-09-14T17:07:11.182Z,71.37
2023-09-14T17:10:13.224Z,71.29
2023-09-14T17:13:17.915Z,71.33
2023-09-14T17:16:19.961Z,71.02
2023-09-14T17:19:22.805Z,71.23
2023-09-14T17:22:26.745Z,71.00
2023-09-14T17:25:28.655Z,70.93
2023-09-14T17:28:30.538Z,70.66
2023-09-14T17:31:32.431Z,70.51
2023-09-14T17:34:35.375Z,70.19
2023-09-14T17:37:37.868Z,70.10
2023-09-14T17:40:39.749Z,70.17
2023-09-14T17:43:41.865Z,69.70
2023-09-14T17:46:43.983Z,69.85
2023-09-14T17:49:45.838Z,69.55
2023-09-14T17:52:47.841Z,69.75
2023-09-14T17:55:53.888Z,69.52
2023-09-14T17:58:55.765Z,69.46
2023-09-14T18:01:59.431Z,69.45
2023-09-14T18:05:01.454Z,69.30
2023-09-14T18:08:04.795Z,68.99
2023-09-14T18:11:06.662Z,68.97
2023-09-14T18:14:08.508Z,68.71
2023-09-14T18:17:10.393Z,69.05
2023-09-14T18:20:12.882Z,69.34
2023-09-14T18:23:14.747Z,69.14
2023-09-14T18:26:16.709Z,69.29
2023-09-14T18:29:18.864Z,69.22
2023-09-14T18:32:20.729Z,69.12
2023-09-14T18:35:22.929Z,69.29
2023-09-14T18:38:25.805Z,69.00
2023-09-14T18:41:30.028Z,69.16
2023-09-14T18:44:32.157Z,68.84
2023-09-14T18:47:36.616Z,69.07
2023-09-14T18:50:39.178Z,68.64
2023-09-14T18:53:43.203Z,68.44
2023-09-14T18:56:45.038Z,68.58
2023-09-14T18:59:47.007Z,68.46
2023-09-14T19:02:49.022Z,68.37
2023-09-14T19:05:54.027Z,68.16
2023-09-14T19:08:57.340Z,68.26
2023-09-14T19:11:59.373Z,68.18
2023-09-14T19:15:01.343Z,68.19
2023-09-14T19:18:05.561Z,68.17
2023-09-14T19:21:09.351Z,68.03
2023-09-14T19:24:11.234Z,68.32
2023-09-14T19:27:13.165Z,68.10
2023-09-14T19:30:15.544Z,68.03
2023-09-14T19:33:17.488Z,67.87
2023-09-14T19:36:24.215Z,67.69
2023-09-14T19:39:26.042Z,68.02
2023-09-14T19:42:27.906Z,67.75
2023-09-14T19:45:29.867Z,67.92
2023-09-14T19:48:31.897Z,67.47
2023-09-14T19:51:33.910Z,67.91
2023-09-14T19:54:36.172Z,67.80
2023-09-14T19:57:38.445Z,67.62
2023-09-14T20:00:41.349Z,67.96
2023-09-14T20:03:44.900Z,67.95
2023-09-14T20:06:46.858Z,67.81
2023-09-14T20:09:49.231Z,67.60
2023-09-14T20:12:51.234Z,67.80
2023-09-14T20:15:53.456Z,68.07
2023-09-14T20:18:55.584Z,68.22
2023-09-14T20:21:57.716Z,68.01
2023-09-14T20:24:59.757Z,68.32
2023-09-14T20:28:01.792Z,68.18
2023-09-14T20:31:04.778Z,68.24
2023-09-14T20:34:07.277Z,68.15
2023-09-14T20:37:09.449Z,67.71
2023-09-14T20:40:18.834Z,67.99
2023-09-14T20:43:20.671Z,67.98
2023-09-14T20:46:25.955Z,67.74
2023-09-14T20:49:29.745Z,67.55
2023-09-14T20:52:31.615Z,67.81
2023-09-14T20:55:34.794Z,67.56
2023-09-14T20:58:37.332Z,67.44
2023-09-14T21:01:39.498Z,67.28
2023-09-14T21:04:41.517Z,67.67
2023-09-14T21:07:43.748Z,67.43
2023-09-14T21:10:45.613Z,67.19
2023-09-14T21:13:47.471Z,66.89
2023-09-14T21:16:51.905Z,66.86
2023-09-14T21:19:57.036Z,66.62
2023-09-14T21:22:59.104Z,66.57
2023-09-14T21:26:01.103Z,66.45
2023-09-14T21:29:02.999Z,66.29
2023-09-14T21:32:05.135Z,66.49
2023-09-14T21:35:07.861Z,66.29
2023-09-14T21:38:09.938Z,66.07
2023-09-14T21:41:11.775Z,66.23
2023-09-14T21:44:13.537Z,66.26
2023-09-14T21:47:15.880Z,65.75
2023-09-14T21:50:17.976Z,65.61
2023-09-14T21:53:22.065Z,65.35
2023-09-14T21:56:24.236Z,65.61
2023-09-14T21:59:26.175Z,65.48
2023-09-14T22:02:32.097Z,65.44
2023-09-14T22:05:37.678Z,65.31
2023-09-14T22:08:39.558Z,65.28
2023-09-14T22:11:41.539Z,65.24
2023-09-14T22:14:43.392Z,65.03
2023-09-14T22:17:45.527Z,65.09
2023-09-14T22:20:47.312Z,64.95
2023-09-14T22:23:49.214Z,64.62
2023-09-14T22:26:51.506Z,64.49
2023-09-14T22:29:54.584Z,64.43
2023-09-14T22:32:56.852Z,64.56
2023-09-14T22:35:58.799Z,64.97
2023-09-14T22:39:00.565Z,64.68
2023-09-14T22:42:02.432Z,64.85
2023-09-14T22:45:07.267Z,64.67
2023-09-14T22:48:09.140Z,64.68
2023-09-14T22:51:14.814Z,64.71
2023-09-14T22:54:16.755Z,64.85
2023-09-14T22:57:18.560Z,64.60
2023-09-14T23:00:20.596Z,64.59
2023-09-14T23:03:22.494Z,64.39
2023-09-14T23:06:24.962Z,64.08
2023-09-14T23:09:26.926Z,64.03
2023-09-14T23:12:29.427Z,63.86
2023-09-14T23:15:31.400Z,63.87
2023-09-14T23:18:33.510Z,63.46
2023-09-14T23:21:35.411Z,63.46
2023-09-14T23:24:38.713Z,63.29
2023-09-14T23:27:46.769Z,63.42
2023-09-14T23:30:50.056Z,63.47
2023-09-14T23:33:52.042Z,63.51
2023-09-14T23:36:53.989Z,63.32
2023-09-14T23:39:58.028Z,63.38
2023-09-14T23:43:01.383Z,63.37
2023-09-14T23:46:04.988Z,63.23
2023-09-14T23:49:09.500Z,63.34
2023-09-14T23:52:11.754Z,63.34
2023-09-14T23:55:14.786Z,63.15
2023-09-14T23:58:17.589Z,63.29
